createdAt,value
2023-01-27T00:01:17.191Z,100227.91
2023-01-27T00:03:44.220Z,100228.74
2023-01-27T00:06:21.699Z,100228.02
2023-01-27T00:08:49.009Z,100221.36
2023-01-27T00:11:34.681Z,100212.79
2023-01-27T00:14:01.784Z,100209.31
2023-01-27T00:16:28.946Z,100211.63
2023-01-27T00:18:55.954Z,100206.99
2023-01-27T00:21:42.372Z,100204.99
2023-01-27T00:24:32.513Z,100201.50
2023-01-27T00:26:59.565Z,100203.04
2023-01-27T00:29:26.869Z,100201.31
2023-01-27T00:32:15.845Z,100198.45
2023-01-27T00:34:43.011Z,100192.57
2023-01-27T00:37:10.187Z,100180.98
2023-01-27T00:39:37.175Z,100175.70
2023-01-27T00:42:04.656Z,100168.18
2023-01-27T00:44:32.352Z,100166.54
2023-01-27T00:46:59.469Z,100163.64
2023-01-27T00:49:26.593Z,100173.56
2023-01-27T00:51:55.248Z,100178.34
2023-01-27T00:54:22.324Z,100177.40
2023-01-27T00:56:49.584Z,100174.44
2023-01-27T00:59:17.643Z,100169.13
2023-01-27T01:01:45.735Z,100172.59
2023-01-27T01:04:12.885Z,100171.08
2023-01-27T01:06:39.823Z,100169.91
2023-01-27T01:09:06.865Z,100167.73
2023-01-27T01:11:33.902Z,100163.89
2023-01-27T01:14:00.958Z,100158.77
2023-01-27T01:16:28.133Z,100158.35
2023-01-27T01:18:55.270Z,100152.37
2023-01-27T01:21:22.607Z,100142.46
2023-01-27T01:23:50.166Z,100134.66
2023-01-27T01:26:18.820Z,100132.66
2023-01-27T01:28:46.622Z,100136.29
2023-01-27T01:31:19.889Z,100134.96
2023-01-27T01:33:49.318Z,100137.02
2023-01-27T01:36:19.326Z,100130.48
2023-01-27T01:38:47.199Z,100118.00
2023-01-27T01:41:20.630Z,100120.27
2023-01-27T01:43:48.668Z,100116.73
2023-01-27T01:46:16.751Z,100115.36
2023-01-27T01:48:49.850Z,100106.78
2023-01-27T01:51:44.854Z,100098.88
2023-01-27T01:54:18.307Z,100094.98
2023-01-27T01:56:58.377Z,100098.10
2023-01-27T01:59:31.820Z,100103.11
2023-01-27T02:02:03.614Z,100095.66
2023-01-27T02:04:39.024Z,100093.65
2023-01-27T02:07:09.270Z,100090.23
2023-01-27T02:09:38.597Z,100093.40
2023-01-27T02:12:07.487Z,100092.92
2023-01-27T02:14:37.196Z,100088.54
2023-01-27T02:17:05.243Z,100087.17
2023-01-27T02:19:47.737Z,100088.38
2023-01-27T02:22:24.859Z,100085.48
2023-01-27T02:24:59.254Z,100081.12
2023-01-27T02:27:26.529Z,100092.23
2023-01-27T02:29:53.573Z,100118.06
2023-01-27T02:32:25.709Z,100118.73
2023-01-27T02:34:56.889Z,100101.83
2023-01-27T02:37:27.627Z,100094.09
2023-01-27T02:39:56.655Z,100067.01
2023-01-27T02:42:24.377Z,100068.20
2023-01-27T02:44:51.289Z,100059.73
2023-01-27T02:47:18.875Z,100056.55
2023-01-27T02:49:45.882Z,100039.55
2023-01-27T02:52:12.959Z,100026.69
2023-01-27T02:54:40.502Z,100019.84
2023-01-27T02:57:07.903Z,100014.51
2023-01-27T02:59:42.585Z,100009.92
2023-01-27T03:02:12.550Z,100012.40
2023-01-27T03:04:39.581Z,100013.14
2023-01-27T03:07:06.934Z,100020.73
2023-01-27T03:09:33.998Z,100035.75
2023-01-27T03:12:19.749Z,100073.31
2023-01-27T03:15:10.076Z,100081.86
2023-01-27T03:17:57.389Z,100069.37
2023-01-27T03:20:24.749Z,100072.36
2023-01-27T03:22:51.887Z,100064.85
2023-01-27T03:25:19.820Z,100045.61
2023-01-27T03:27:47.834Z,100039.67
2023-01-27T03:30:38.508Z,100041.40
2023-01-27T03:33:12.944Z,100027.76
2023-01-27T03:36:16.775Z,100026.17
2023-01-27T03:39:06.443Z,100025.17
2023-01-27T03:41:52.633Z,100019.38
2023-01-27T03:44:38.729Z,100020.33
2023-01-27T03:47:06.182Z,100018.11
2023-01-27T03:49:33.224Z,100015.11
2023-01-27T03:52:00.574Z,100007.73
2023-01-27T03:54:27.531Z,100006.36
2023-01-27T03:56:54.546Z,100002.94
2023-01-27T03:59:22.542Z,100006.05
2023-01-27T04:01:49.633Z,100013.64
2023-01-27T04:04:35.284Z,100015.89
2023-01-27T04:07:03.910Z,100036.85
2023-01-27T04:09:35.982Z,100039.20
2023-01-27T04:12:05.935Z,100030.74
2023-01-27T04:14:35.829Z,100024.10
2023-01-27T04:17:06.455Z,100025.21
2023-01-27T04:19:34.377Z,100023.64
2023-01-27T04:22:02.504Z,100022.27
2023-01-27T04:24:29.948Z,100019.64
2023-01-27T04:27:06.529Z,100013.90
2023-01-27T04:29:36.317Z,100013.42
2023-01-27T04:32:06.354Z,100014.86
2023-01-27T04:34:33.499Z,100014.53
2023-01-27T04:37:01.128Z,100013.31
2023-01-27T04:39:28.111Z,100012.91
2023-01-27T04:41:56.849Z,100009.16
2023-01-27T04:44:24.485Z,100009.11
2023-01-27T04:46:51.998Z,100009.70
2023-01-27T04:49:19.028Z,100016.64
2023-01-27T04:51:47.463Z,100018.80
2023-01-27T04:54:15.556Z,100019.23
2023-01-27T04:56:55.296Z,100021.65
2023-01-27T04:59:22.330Z,100021.33
2023-01-27T05:01:50.465Z,100015.69
2023-01-27T05:04:17.619Z,100007.36
2023-01-27T05:06:44.689Z,100017.48
2023-01-27T05:09:11.652Z,100018.13
2023-01-27T05:11:38.700Z,100013.27
2023-01-27T05:14:05.745Z,100013.16
2023-01-27T05:16:32.831Z,100012.06
2023-01-27T05:18:59.938Z,100015.42
2023-01-27T05:21:28.621Z,100012.42
2023-01-27T05:23:55.624Z,100019.58
2023-01-27T05:26:25.460Z,100027.70
2023-01-27T05:28:53.932Z,100040.49
2023-01-27T05:31:24.091Z,100052.87
2023-01-27T05:33:53.341Z,100044.08
2023-01-27T05:36:23.454Z,100042.77
2023-01-27T05:38:50.492Z,100046.36
2023-01-27T05:41:19.723Z,100044.70
2023-01-27T05:43:51.316Z,100041.91
2023-01-27T05:46:20.792Z,100040.66
2023-01-27T05:48:50.917Z,100042.60
2023-01-27T05:51:19.805Z,100040.86
2023-01-27T05:53:47.496Z,100037.86
2023-01-27T05:56:17.857Z,100035.92
2023-01-27T05:58:45.514Z,100035.61
2023-01-27T06:01:17.209Z,100036.77
2023-01-27T06:03:45.532Z,100038.91
2023-01-27T06:06:14.031Z,100037.70
2023-01-27T06:08:44.571Z,100036.70
2023-01-27T06:11:11.591Z,100040.50
2023-01-27T06:13:39.299Z,100041.02
2023-01-27T06:16:09.142Z,100043.13
2023-01-27T06:18:40.142Z,100038.92
2023-01-27T06:21:09.471Z,100040.87
2023-01-27T06:23:36.823Z,100039.70
2023-01-27T06:26:09.197Z,100036.85
2023-01-27T06:28:40.315Z,100038.76
2023-01-27T06:31:11.913Z,100035.11
2023-01-27T06:33:39.157Z,100033.11
2023-01-27T06:36:11.195Z,100035.06
2023-01-27T06:38:39.142Z,100048.86
2023-01-27T06:41:06.841Z,100053.65
2023-01-27T06:43:34.025Z,100060.50
2023-01-27T06:46:02.568Z,100071.08
2023-01-27T06:48:34.550Z,100071.92
2023-01-27T06:51:01.678Z,100079.08
2023-01-27T06:53:28.767Z,100082.94
2023-01-27T06:56:00.909Z,100082.61
2023-01-27T06:58:28.941Z,100081.40
2023-01-27T07:00:56.794Z,100083.14
2023-01-27T07:03:24.915Z,100082.88
2023-01-27T07:05:53.405Z,100082.51
2023-01-27T07:08:20.445Z,100079.57
2023-01-27T07:10:47.574Z,100086.32
2023-01-27T07:13:15.512Z,100099.02
2023-01-27T07:15:42.656Z,100107.55
2023-01-27T07:18:12.260Z,100113.97
2023-01-27T07:20:41.282Z,100115.98
2023-01-27T07:23:10.303Z,100113.04
2023-01-27T07:25:38.148Z,100123.94
2023-01-27T07:28:05.972Z,100129.64
2023-01-27T07:30:36.194Z,100137.52
2023-01-27T07:33:05.111Z,100140.45
2023-01-27T07:35:32.874Z,100135.70
2023-01-27T07:38:00.245Z,100133.02
2023-01-27T07:40:28.039Z,100134.39
2023-01-27T07:42:59.669Z,100141.29
2023-01-27T07:45:29.020Z,100146.40
2023-01-27T07:48:03.935Z,100151.10
2023-01-27T07:50:31.380Z,100152.69
2023-01-27T07:53:01.156Z,100160.17
2023-01-27T07:55:29.324Z,100165.30
2023-01-27T07:57:57.878Z,100164.56
2023-01-27T08:00:26.024Z,100169.89
2023-01-27T08:02:54.646Z,100179.36
2023-01-27T08:05:25.622Z,100180.95
2023-01-27T08:07:55.176Z,100186.13
2023-01-27T08:10:23.112Z,100189.45
2023-01-27T08:12:50.332Z,100189.70
2023-01-27T08:15:19.171Z,100194.98
2023-01-27T08:17:56.093Z,100199.57
2023-01-27T08:20:24.596Z,100206.36
2023-01-27T08:22:51.766Z,100211.27
2023-01-27T08:25:19.104Z,100216.00
2023-01-27T08:27:50.259Z,100211.42
2023-01-27T08:30:17.597Z,100216.54
2023-01-27T08:32:44.534Z,100216.69
2023-01-27T08:35:11.514Z,100219.54
2023-01-27T08:37:38.540Z,100219.27
2023-01-27T08:40:06.110Z,100226.91
2023-01-27T08:42:33.024Z,100231.42
2023-01-27T08:45:00.783Z,100233.26
2023-01-27T08:47:29.095Z,100233.65
2023-01-27T08:49:56.346Z,100236.38
2023-01-27T08:52:23.692Z,100239.06
2023-01-27T08:54:50.738Z,100243.48
2023-01-27T08:57:17.978Z,100250.06
2023-01-27T08:59:46.377Z,100253.48
2023-01-27T09:02:14.457Z,100257.58
2023-01-27T09:04:44.392Z,100261.84
2023-01-27T09:07:11.602Z,100263.84
2023-01-27T09:09:38.773Z,100267.11
2023-01-27T09:12:06.322Z,100270.09
2023-01-27T09:14:34.403Z,100269.36
2023-01-27T09:17:01.740Z,100271.16
2023-01-27T09:19:28.759Z,100274.41
2023-01-27T09:21:56.475Z,100278.73
2023-01-27T09:24:23.852Z,100280.48
2023-01-27T09:26:51.371Z,100285.59
2023-01-27T09:29:18.508Z,100292.39
2023-01-27T09:31:46.014Z,100296.04
2023-01-27T09:34:13.417Z,100299.09
2023-01-27T09:36:48.400Z,100304.13
2023-01-27T09:39:18.008Z,100305.81
2023-01-27T09:42:09.785Z,100305.45
2023-01-27T09:45:03.671Z,100303.92
2023-01-27T09:48:03.819Z,100302.88
2023-01-27T09:50:42.720Z,100303.61
2023-01-27T09:53:27.789Z,100296.23
2023-01-27T09:56:05.192Z,100297.33
2023-01-27T09:58:50.065Z,100293.59
2023-01-27T10:01:47.389Z,100298.55
2023-01-27T10:04:32.930Z,100295.64
2023-01-27T10:07:22.507Z,100299.17
2023-01-27T10:09:49.400Z,100305.50
2023-01-27T10:12:47.574Z,100307.23
2023-01-27T10:15:23.526Z,100309.27
2023-01-27T10:18:19.046Z,100309.75
2023-01-27T10:21:12.617Z,100316.33
2023-01-27T10:24:05.201Z,100319.02
2023-01-27T10:26:53.407Z,100322.80
2023-01-27T10:29:31.301Z,100322.16
2023-01-27T10:32:12.798Z,100326.17
2023-01-27T10:35:15.237Z,100324.75
2023-01-27T10:37:52.347Z,100327.34
2023-01-27T10:40:43.869Z,100321.75
2023-01-27T10:43:24.237Z,100323.95
2023-01-27T10:46:12.067Z,100320.95
2023-01-27T10:48:46.901Z,100321.08
2023-01-27T10:51:20.300Z,100321.86
2023-01-27T10:53:57.793Z,100318.27
2023-01-27T10:56:35.786Z,100321.13
2023-01-27T10:59:21.282Z,100310.05
2023-01-27T11:02:24.666Z,100304.37
2023-01-27T11:04:59.097Z,100300.58
2023-01-27T11:07:27.061Z,100300.98
2023-01-27T11:10:01.578Z,100303.63
2023-01-27T11:12:34.698Z,100297.68
2023-01-27T11:15:14.307Z,100291.16
2023-01-27T11:17:50.542Z,100290.56
2023-01-27T11:20:37.501Z,100285.77
2023-01-27T11:23:18.119Z,100283.88
2023-01-27T11:25:48.704Z,100281.45
2023-01-27T11:29:00.954Z,100278.61
2023-01-27T11:31:47.080Z,100275.88
2023-01-27T11:34:19.653Z,100274.88
2023-01-27T11:36:50.298Z,100272.14
2023-01-27T11:39:19.077Z,100271.99
2023-01-27T11:41:53.406Z,100269.30
2023-01-27T11:44:24.947Z,100274.84
2023-01-27T11:46:53.736Z,100276.31
2023-01-27T11:49:27.406Z,100277.16
2023-01-27T11:52:05.953Z,100277.80
2023-01-27T11:54:44.305Z,100274.95
2023-01-27T11:57:20.320Z,100270.36
2023-01-27T11:59:50.757Z,100271.73
2023-01-27T12:02:23.452Z,100270.85
2023-01-27T12:05:18.038Z,100274.39
2023-01-27T12:07:57.393Z,100281.14
2023-01-27T12:10:29.711Z,100278.18
2023-01-27T12:12:58.424Z,100277.17
2023-01-27T12:15:31.446Z,100280.55
2023-01-27T12:18:18.661Z,100281.55
2023-01-27T12:20:47.616Z,100279.11
2023-01-27T12:23:32.786Z,100283.91
2023-01-27T12:26:03.276Z,100283.59
2023-01-27T12:28:59.857Z,100288.33
2023-01-27T12:31:30.421Z,100288.23
2023-01-27T12:34:04.811Z,100295.19
2023-01-27T12:36:43.730Z,100297.09
2023-01-27T12:39:44.880Z,100297.20
2023-01-27T12:42:41.113Z,100294.88
2023-01-27T12:45:24.277Z,100301.15
2023-01-27T12:48:09.625Z,100300.15
2023-01-27T12:50:44.582Z,100298.47
2023-01-27T12:53:19.721Z,100303.21
2023-01-27T12:56:14.270Z,100303.42
2023-01-27T12:59:13.675Z,100306.69
2023-01-27T13:01:44.973Z,100309.59
2023-01-27T13:04:22.211Z,100312.85
2023-01-27T13:07:02.578Z,100311.28
2023-01-27T13:09:35.185Z,100314.70
2023-01-27T13:12:13.415Z,100314.50
2023-01-27T13:14:45.459Z,100317.35
2023-01-27T13:17:44.824Z,100315.13
2023-01-27T13:20:27.842Z,100319.56
2023-01-27T13:23:21.840Z,100320.78
2023-01-27T13:26:05.900Z,100320.94
2023-01-27T13:28:53.384Z,100322.31
2023-01-27T13:31:38.871Z,100321.46
2023-01-27T13:34:17.708Z,100328.53
2023-01-27T13:36:52.745Z,100336.95
2023-01-27T13:39:54.760Z,100343.02
2023-01-27T13:42:37.527Z,100361.89
2023-01-27T13:45:16.761Z,100373.79
2023-01-27T13:48:04.587Z,100374.36
2023-01-27T13:50:39.535Z,100360.45
2023-01-27T13:53:10.557Z,100359.56
2023-01-27T13:55:50.881Z,100360.02
2023-01-27T13:58:36.510Z,100359.83
2023-01-27T14:01:22.021Z,100362.62
2023-01-27T14:04:10.838Z,100363.89
2023-01-27T14:07:13.322Z,100370.48
2023-01-27T14:10:04.727Z,100373.11
2023-01-27T14:12:37.793Z,100372.48
2023-01-27T14:15:27.818Z,100374.79
2023-01-27T14:18:05.843Z,100367.89
2023-01-27T14:21:22.873Z,100371.27
2023-01-27T14:24:11.113Z,100377.91
2023-01-27T14:27:05.603Z,100385.04
2023-01-27T14:29:50.219Z,100389.56
2023-01-27T14:32:26.793Z,100390.31
2023-01-27T14:35:11.982Z,100395.00
2023-01-27T14:38:02.773Z,100400.20
2023-01-27T14:40:40.159Z,100401.98
2023-01-27T14:43:29.737Z,100403.36
2023-01-27T14:46:29.724Z,100403.63
2023-01-27T14:49:09.812Z,100404.36
2023-01-27T14:51:45.664Z,100416.53
2023-01-27T14:54:37.080Z,100424.23
2023-01-27T14:57:22.677Z,100428.81
2023-01-27T15:00:08.388Z,100428.08
2023-01-27T15:02:48.536Z,100433.66
2023-01-27T15:05:57.837Z,100433.23
2023-01-27T15:08:38.062Z,100435.06
2023-01-27T15:11:37.316Z,100445.51
2023-01-27T15:14:42.568Z,100450.83
2023-01-27T15:17:40.320Z,100455.36
2023-01-27T15:20:32.028Z,100455.14
2023-01-27T15:23:37.178Z,100456.73
2023-01-27T15:26:07.199Z,100462.15
2023-01-27T15:28:38.971Z,100463.41
2023-01-27T15:31:17.315Z,100468.68
2023-01-27T15:33:54.791Z,100468.58
2023-01-27T15:36:24.687Z,100471.46
2023-01-27T15:39:11.310Z,100473.36
2023-01-27T15:42:01.457Z,100474.30
2023-01-27T15:44:30.858Z,100473.98
2023-01-27T15:47:28.023Z,100479.09
2023-01-27T15:50:19.125Z,100485.68
2023-01-27T15:52:48.949Z,100489.63
2023-01-27T15:55:29.013Z,100498.58
2023-01-27T15:58:12.223Z,100495.01
2023-01-27T16:00:43.010Z,100496.91
2023-01-27T16:03:22.417Z,100497.00
2023-01-27T16:05:52.513Z,100495.90
2023-01-27T16:08:21.192Z,100496.05
2023-01-27T16:10:48.505Z,100489.52
2023-01-27T16:13:20.523Z,100486.26
2023-01-27T16:15:47.862Z,100491.72
2023-01-27T16:18:15.425Z,100496.27
2023-01-27T16:20:42.471Z,100498.16
2023-01-27T16:23:14.127Z,100501.63
2023-01-27T16:25:48.518Z,100502.31
2023-01-27T16:28:20.930Z,100503.21
2023-01-27T16:31:02.528Z,100507.01
2023-01-27T16:33:43.687Z,100506.48
2023-01-27T16:36:37.787Z,100499.52
2023-01-27T16:39:31.335Z,100505.84
2023-01-27T16:42:00.655Z,100509.59
2023-01-27T16:44:44.298Z,100517.00
2023-01-27T16:47:21.606Z,100520.23
2023-01-27T16:49:50.465Z,100523.91
2023-01-27T16:52:32.421Z,100536.40
2023-01-27T16:55:07.275Z,100544.38
2023-01-27T16:57:42.212Z,100549.13
2023-01-27T17:00:20.785Z,100550.70
2023-01-27T17:02:49.461Z,100550.18
2023-01-27T17:05:19.351Z,100555.45
2023-01-27T17:08:17.513Z,100553.54
2023-01-27T17:10:52.342Z,100560.22
2023-01-27T17:13:27.772Z,100562.42
2023-01-27T17:15:55.668Z,100566.11
2023-01-27T17:18:25.156Z,100569.21
2023-01-27T17:20:52.806Z,100573.17
2023-01-27T17:23:24.495Z,100573.73
2023-01-27T17:25:52.130Z,100575.95
2023-01-27T17:28:29.618Z,100578.39
2023-01-27T17:31:07.530Z,100577.02
2023-01-27T17:33:37.134Z,100584.55
2023-01-27T17:36:11.159Z,100589.71
2023-01-27T17:38:46.787Z,100593.34
2023-01-27T17:41:45.779Z,100597.88
2023-01-27T17:44:14.736Z,100598.46
2023-01-27T17:46:42.030Z,100605.21
2023-01-27T17:49:15.629Z,100602.70
2023-01-27T17:51:46.627Z,100605.16
2023-01-27T17:54:25.182Z,100607.80
2023-01-27T17:57:18.575Z,100610.06
2023-01-27T17:59:59.397Z,100616.75
2023-01-27T18:02:35.445Z,100620.92
2023-01-27T18:05:15.077Z,100625.40
2023-01-27T18:07:42.893Z,100628.36
2023-01-27T18:10:36.450Z,100627.19
2023-01-27T18:13:18.878Z,100631.00
2023-01-27T18:15:58.546Z,100636.42
2023-01-27T18:18:28.621Z,100641.95
2023-01-27T18:21:02.022Z,100646.69
2023-01-27T18:23:33.447Z,100651.48
2023-01-27T18:26:03.821Z,100658.02
2023-01-27T18:28:35.765Z,100664.38
2023-01-27T18:31:08.810Z,100669.32
2023-01-27T18:33:37.447Z,100662.20
2023-01-27T18:36:05.177Z,100661.99
2023-01-27T18:38:33.037Z,100657.84
2023-01-27T18:41:23.064Z,100667.06
2023-01-27T18:43:50.378Z,100671.11
2023-01-27T18:46:17.902Z,100678.35
2023-01-27T18:48:46.029Z,100685.52
2023-01-27T18:51:15.422Z,100688.31
2023-01-27T18:53:44.040Z,100692.80
2023-01-27T18:56:12.191Z,100696.91
2023-01-27T18:58:39.445Z,100694.50
2023-01-27T19:01:15.497Z,100699.44
2023-01-27T19:03:43.490Z,100699.84
2023-01-27T19:06:17.276Z,100696.04
2023-01-27T19:08:45.275Z,100698.70
2023-01-27T19:11:16.752Z,100700.25
2023-01-27T19:13:45.267Z,100702.13
2023-01-27T19:16:17.282Z,100706.14
2023-01-27T19:18:46.367Z,100714.12
2023-01-27T19:21:15.576Z,100714.56
2023-01-27T19:23:47.641Z,100710.77
2023-01-27T19:26:18.042Z,100711.66
2023-01-27T19:28:47.635Z,100713.39
2023-01-27T19:31:15.048Z,100721.27
2023-01-27T19:33:45.236Z,100735.23
2023-01-27T19:36:32.115Z,100742.05
2023-01-27T19:39:15.723Z,100746.26
2023-01-27T19:41:49.319Z,100755.11
2023-01-27T19:44:17.023Z,100752.79
2023-01-27T19:46:44.490Z,100747.25
2023-01-27T19:49:19.855Z,100746.51
2023-01-27T19:51:47.677Z,100744.20
2023-01-27T19:54:18.629Z,100740.39
2023-01-27T19:56:47.032Z,100737.81
2023-01-27T19:59:14.152Z,100734.44
2023-01-27T20:01:42.643Z,100730.48
2023-01-27T20:04:11.350Z,100725.99
2023-01-27T20:06:39.167Z,100729.57
2023-01-27T20:09:06.727Z,100722.83
2023-01-27T20:11:40.213Z,100721.09
2023-01-27T20:14:14.357Z,100716.69
2023-01-27T20:16:43.010Z,100715.73
2023-01-27T20:19:13.655Z,100718.52
2023-01-27T20:21:46.367Z,100720.48
2023-01-27T20:24:22.153Z,100721.67
2023-01-27T20:26:49.720Z,100725.89
2023-01-27T20:29:17.532Z,100723.33
2023-01-27T20:31:49.246Z,100723.84
2023-01-27T20:34:16.683Z,100726.62
2023-01-27T20:36:43.762Z,100722.63
2023-01-27T20:39:11.442Z,100726.00
2023-01-27T20:41:38.700Z,100723.91
2023-01-27T20:44:12.579Z,100723.29
2023-01-27T20:46:40.571Z,100727.68
2023-01-27T20:49:07.579Z,100731.60
2023-01-27T20:51:35.075Z,100730.96
2023-01-27T20:54:02.449Z,100728.08
2023-01-27T20:56:30.017Z,100728.06
2023-01-27T20:58:57.578Z,100727.59
2023-01-27T21:01:26.043Z,100731.59
2023-01-27T21:03:53.586Z,100732.02
2023-01-27T21:06:25.073Z,100733.77
2023-01-27T21:08:52.414Z,100739.73
2023-01-27T21:11:24.668Z,100739.84
2023-01-27T21:13:52.439Z,100740.63
2023-01-27T21:16:19.532Z,100736.83
2023-01-27T21:18:46.726Z,100736.28
2023-01-27T21:21:28.698Z,100739.84
2023-01-27T21:23:57.950Z,100742.39
2023-01-27T21:26:25.079Z,100745.80
2023-01-27T21:28:53.983Z,100748.70
2023-01-27T21:31:22.518Z,100749.73
2023-01-27T21:33:50.842Z,100751.41
2023-01-27T21:36:19.384Z,100750.14
2023-01-27T21:38:46.973Z,100754.63
2023-01-27T21:41:45.452Z,100755.08
2023-01-27T21:44:38.606Z,100753.46
2023-01-27T21:47:07.304Z,100756.71
2023-01-27T21:49:54.781Z,100755.74
2023-01-27T21:52:23.309Z,100757.73
2023-01-27T21:54:51.603Z,100755.40
2023-01-27T21:57:18.930Z,100756.50
2023-01-27T21:59:46.113Z,100754.33
2023-01-27T22:02:14.770Z,100752.95
2023-01-27T22:04:45.742Z,100752.42
2023-01-27T22:07:15.483Z,100751.98
2023-01-27T22:09:43.390Z,100746.16
2023-01-27T22:12:13.055Z,100745.29
2023-01-27T22:14:40.036Z,100742.92
2023-01-27T22:17:07.081Z,100740.89
2023-01-27T22:19:34.296Z,100742.29
2023-01-27T22:22:01.163Z,100738.99
2023-01-27T22:24:28.124Z,100742.38
2023-01-27T22:26:55.163Z,100743.25
2023-01-27T22:29:22.221Z,100746.67
2023-01-27T22:31:49.319Z,100751.65
2023-01-27T22:34:16.963Z,100752.20
2023-01-27T22:36:44.038Z,100748.65
2023-01-27T22:39:11.275Z,100752.41
2023-01-27T22:41:38.251Z,100751.69
2023-01-27T22:44:05.461Z,100751.27
2023-01-27T22:46:32.391Z,100751.53
2023-01-27T22:48:59.328Z,100756.55
2023-01-27T22:51:26.430Z,100750.80
2023-01-27T22:53:53.347Z,100747.71
2023-01-27T22:56:20.233Z,100748.47
2023-01-27T22:58:47.646Z,100748.69
2023-01-27T23:01:14.845Z,100745.73
2023-01-27T23:03:41.831Z,100744.31
2023-01-27T23:06:09.381Z,100749.75
2023-01-27T23:08:36.308Z,100750.77
2023-01-27T23:11:05.289Z,100749.96
2023-01-27T23:13:33.368Z,100750.45
2023-01-27T23:16:00.726Z,100753.35
2023-01-27T23:18:27.956Z,100751.45
2023-01-27T23:20:55.017Z,100749.56
2023-01-27T23:23:23.284Z,100752.08
2023-01-27T23:25:50.373Z,100752.61
2023-01-27T23:28:19.548Z,100748.98
2023-01-27T23:30:49.603Z,100752.19
2023-01-27T23:33:18.520Z,100747.97
2023-01-27T23:35:46.160Z,100745.81
2023-01-27T23:38:31.504Z,100745.91
2023-01-27T23:41:08.401Z,100742.70
2023-01-27T23:43:35.438Z,100741.29
2023-01-27T23:46:02.453Z,100742.28
2023-01-27T23:48:29.744Z,100733.27
2023-01-27T23:50:56.731Z,100733.96
2023-01-27T23:53:23.714Z,100736.23
2023-01-27T23:56:00.699Z,100739.39
2023-01-27T23:58:28.029Z,100732.53
